Time;durP1;ratioP1;P1;durP2;ratioP2;P2;SDS_P1;SDS_P2;PMS_P1;PMS_P2;Temp;Humidity;BMP_temperature;BMP_pressure;BME280_temperature;BME280_humidity;BME280_pressure;Samples;Min_cycle;Max_cycle;Signal;HPM_P1;HPM_P2
2023/04/01 00:00:20;;;;;;;7.80;1.33;;;9.40;99.90;;;;;;5072507;28;20036;-58
2023/04/01 00:02:47;;;;;;;3.37;1.07;;;9.50;99.90;;;;;;5072556;28;20123;-59
2023/04/01 00:05:13;;;;;;;8.73;1.50;;;9.50;99.90;;;;;;5072107;28;20542;-60
2023/04/01 00:07:39;;;;;;;6.37;1.30;;;9.50;99.90;;;;;;5072301;28;20029;-60
2023/04/01 00:10:07;;;;;;;6.03;1.50;;;9.50;99.90;;;;;;5072363;28;20044;-59
2023/04/01 00:12:34;;;;;;;7.23;1.57;;;9.50;99.90;;;;;;5072440;28;20429;-57
2023/04/01 00:15:00;;;;;;;4.23;1.33;;;9.60;99.90;;;;;;5072064;28;20089;-58
2023/04/01 00:17:26;;;;;;;7.20;1.63;;;9.60;99.90;;;;;;5072038;28;20072;-59
2023/04/01 00:19:55;;;;;;;5.63;1.67;;;9.60;99.90;;;;;;5072074;28;20038;-56
2023/04/01 00:22:21;;;;;;;5.20;1.70;;;9.60;99.90;;;;;;5072261;28;20374;-59
2023/04/01 00:24:47;;;;;;;5.67;1.33;;;9.50;99.90;;;;;;5071831;28;20449;-58
2023/04/01 00:27:13;;;;;;;6.00;1.40;;;9.60;99.90;;;;;;5071984;28;20032;-58
2023/04/01 00:29:42;;;;;;;7.30;1.53;;;9.60;99.90;;;;;;5054043;28;20071;-58
2023/04/01 00:32:08;;;;;;;6.93;1.67;;;9.60;99.90;;;;;;5053386;28;20029;-58
2023/04/01 00:34:34;;;;;;;7.33;1.27;;;9.50;99.90;;;;;;5071608;28;20123;-58
2023/04/01 00:37:00;;;;;;;3.10;1.03;;;9.50;99.90;;;;;;5071658;28;20031;-58
2023/04/01 00:39:28;;;;;;;4.43;0.90;;;9.50;99.90;;;;;;5071765;28;20085;-58
2023/04/01 00:41:54;;;;;;;4.88;1.10;;;9.50;99.90;;;;;;5071768;28;20071;-58
2023/04/01 00:44:24;;;;;;;2.87;0.87;;;9.50;99.90;;;;;;5071465;28;20501;-58
2023/04/01 00:46:52;;;;;;;5.80;1.00;;;9.50;99.90;;;;;;5053413;28;20082;-58
2023/04/01 00:49:20;;;;;;;4.40;0.70;;;9.50;99.90;;;;;;5071617;28;20028;-58
2023/04/01 00:51:51;;;;;;;3.80;1.20;;;9.40;99.90;;;;;;5053696;28;20036;-59
2023/04/01 00:54:20;;;;;;;2.87;0.90;;;9.40;99.90;;;;;;5071398;28;20047;-59
2023/04/01 00:56:57;;;;;;;2.50;1.10;;;9.40;99.90;;;;;;5053400;28;20036;-58
2023/04/01 00:59:27;;;;;;;3.40;0.80;;;9.40;99.90;;;;;;5053377;28;20062;-58
2023/04/01 01:01:53;;;;;;;2.10;1.00;;;9.50;99.90;;;;;;5053423;28;20081;-59
2023/04/01 01:04:27;;;;;;;7.40;0.90;;;9.50;99.90;;;;;;5070993;28;20104;-59
2023/04/01 01:07:20;;;;;;;3.20;0.97;;;9.50;99.90;;;;;;5053123;28;20039;-58
2023/04/01 01:09:45;;;;;;;4.10;1.00;;;9.40;99.90;;;;;;5053174;28;20409;-59
2023/04/01 01:12:18;;;;;;;4.10;1.00;;;9.50;99.90;;;;;;5053157;28;20108;-59
2023/04/01 01:14:44;;;;;;;5.63;1.00;;;9.50;99.90;;;;;;5053011;28;20029;-59
2023/04/01 01:17:34;;;;;;;2.20;0.90;;;9.50;99.90;;;;;;5052936;28;20090;-59
2023/04/01 01:20:20;;;;;;;3.40;0.87;;;9.50;99.90;;;;;;5053167;28;20461;-59
2023/04/01 01:23:15;;;;;;;4.47;0.90;;;9.50;99.90;;;;;;5053153;28;20021;-59
2023/04/01 01:25:41;;;;;;;5.27;0.97;;;9.50;99.90;;;;;;5070846;28;20032;-59
2023/04/01 01:28:36;;;;;;;3.87;0.93;;;9.50;99.90;;;;;;5070743;28;20040;-59
2023/04/01 01:31:19;;;;;;;8.57;2.23;;;9.50;99.90;;;;;;5053051;28;20036;-59
2023/04/01 01:34:12;;;;;;;3.00;1.00;;;9.50;99.90;;;;;;5070836;28;20033;-59
2023/04/01 01:36:40;;;;;;;2.70;1.00;;;9.50;99.90;;;;;;5052834;28;20426;-59
2023/04/01 01:39:10;;;;;;;3.47;0.70;;;9.50;99.90;;;;;;5052982;28;20063;-59
2023/04/01 01:41:39;;;;;;;2.83;0.70;;;9.60;99.90;;;;;;5052871;28;20040;-60
2023/04/01 01:44:08;;;;;;;4.37;1.03;;;9.60;99.90;;;;;;5051946;28;20033;-59
2023/04/01 01:46:35;;;;;;;4.22;0.80;;;9.60;99.90;;;;;;5052661;28;20024;-59
2023/04/01 01:49:03;;;;;;;2.97;0.83;;;9.60;99.90;;;;;;5070791;28;20633;-59
2023/04/01 01:51:29;;;;;;;4.13;0.80;;;9.60;99.90;;;;;;5070738;28;20027;-58
2023/04/01 01:53:55;;;;;;;3.57;0.83;;;9.60;99.90;;;;;;5070647;28;20055;-59
2023/04/01 01:56:27;;;;;;;3.27;0.70;;;9.70;99.90;;;;;;5052490;28;20115;-59
2023/04/01 01:59:09;;;;;;;5.17;0.80;;;9.60;99.90;;;;;;5052768;28;20475;-59
2023/04/01 02:01:39;;;;;;;1.50;0.63;;;9.60;99.90;;;;;;5052731;28;20396;-59
2023/04/01 02:04:12;;;;;;;3.50;1.17;;;9.60;99.90;;;;;;5052398;28;20036;-59
2023/04/01 02:06:48;;;;;;;5.22;0.80;;;9.60;99.90;;;;;;5052411;28;20481;-59
2023/04/01 02:09:14;;;;;;;3.23;1.10;;;9.60;99.90;;;;;;5052675;28;20033;-59
2023/04/01 02:11:51;;;;;;;4.57;0.90;;;9.60;99.90;;;;;;5052633;28;20029;-59
2023/04/01 02:14:21;;;;;;;2.93;0.70;;;9.60;99.90;;;;;;5070185;28;20036;-59
2023/04/01 02:16:54;;;;;;;1.83;0.60;;;9.60;99.90;;;;;;5052339;28;20481;-59
2023/04/01 02:19:24;;;;;;;2.03;0.70;;;9.50;99.90;;;;;;5052533;28;20401;-58
2023/04/01 02:21:56;;;;;;;4.47;1.07;;;9.50;99.90;;;;;;5052567;28;20097;-59
2023/04/01 02:24:24;;;;;;;4.13;1.20;;;9.50;99.90;;;;;;5070103;28;20086;-59
2023/04/01 02:26:51;;;;;;;7.20;2.20;;;9.50;99.90;;;;;;5052146;28;20031;-59
2023/04/01 02:29:20;;;;;;;5.73;1.77;;;9.40;99.90;;;;;;5052252;28;20143;-60
2023/04/01 02:31:47;;;;;;;4.00;1.17;;;9.50;99.90;;;;;;5052258;28;20024;-59
2023/04/01 02:34:13;;;;;;;3.83;1.40;;;9.50;99.90;;;;;;5066460;28;20063;-59
2023/04/01 02:36:39;;;;;;;7.03;2.00;;;9.50;99.90;;;;;;5068709;28;20032;-59
2023/04/01 02:39:06;;;;;;;8.67;3.63;;;9.40;99.90;;;;;;5035146;28;20035;-59
2023/04/01 02:41:39;;;;;;;10.77;4.73;;;9.50;99.90;;;;;;5060921;28;20487;-59
2023/04/01 02:44:06;;;;;;;7.87;3.43;;;9.50;99.90;;;;;;5050655;28;20037;-59
2023/04/01 02:46:31;;;;;;;8.13;2.60;;;9.40;99.90;;;;;;5068416;28;20119;-58
2023/04/01 02:48:57;;;;;;;5.47;2.20;;;9.40;99.90;;;;;;5050362;28;20119;-58
2023/04/01 02:51:23;;;;;;;5.00;2.10;;;9.30;99.90;;;;;;5050694;28;20054;-59
2023/04/01 02:53:49;;;;;;;4.03;2.03;;;9.20;99.90;;;;;;5050390;28;20038;-59
2023/04/01 02:56:15;;;;;;;4.13;1.60;;;9.20;99.90;;;;;;5071017;28;20195;-60
2023/04/01 02:58:40;;;;;;;7.40;2.80;;;9.20;99.90;;;;;;5071771;28;20024;-59
2023/04/01 03:01:08;;;;;;;9.43;4.40;;;9.20;99.90;;;;;;5054113;28;20032;-59
2023/04/01 03:03:33;;;;;;;7.80;2.90;;;9.10;99.90;;;;;;5053659;28;20028;-59
2023/04/01 03:06:08;;;;;;;9.30;4.37;;;9.20;99.90;;;;;;5072069;28;20039;-59
2023/04/01 03:08:34;;;;;;;7.77;3.50;;;9.10;99.90;;;;;;5071557;28;20063;-59
2023/04/01 03:11:00;;;;;;;7.70;2.70;;;9.20;99.90;;;;;;5053291;28;20402;-59
2023/04/01 03:13:26;;;;;;;5.83;2.17;;;9.10;99.90;;;;;;5053902;28;20028;-59
2023/04/01 03:15:53;;;;;;;6.90;2.63;;;9.10;99.90;;;;;;5037086;28;20037;-59
2023/04/01 03:18:19;;;;;;;5.80;2.20;;;9.10;99.90;;;;;;5053240;28;20032;-59
2023/04/01 03:20:45;;;;;;;6.10;2.40;;;9.20;99.90;;;;;;5071711;28;20043;-59
2023/04/01 03:23:11;;;;;;;5.80;2.10;;;9.10;99.90;;;;;;5053728;28;20032;-59
2023/04/01 03:25:36;;;;;;;5.70;3.13;;;9.10;99.90;;;;;;5052688;28;20024;-59
2023/04/01 03:28:03;;;;;;;11.30;5.70;;;9.20;99.90;;;;;;5053646;28;20021;-59
2023/04/01 03:30:32;;;;;;;11.60;6.23;;;9.20;99.90;;;;;;5053757;28;20036;-59
2023/04/01 03:32:59;;;;;;;10.57;6.00;;;9.20;99.90;;;;;;5071731;28;20032;-59
2023/04/01 03:35:25;;;;;;;11.40;6.07;;;9.30;99.90;;;;;;5070942;28;20024;-59
2023/04/01 03:37:51;;;;;;;14.13;7.33;;;9.30;99.90;;;;;;5053451;28;20520;-60
2023/04/01 03:40:17;;;;;;;14.53;6.43;;;9.30;99.90;;;;;;5052470;28;20126;-63
2023/04/01 03:42:43;;;;;;;7.63;5.17;;;9.30;99.90;;;;;;5053539;28;20479;-60
2023/04/01 03:45:11;;;;;;;9.80;5.10;;;9.30;99.90;;;;;;5071063;28;20047;-60
2023/04/01 03:47:38;;;;;;;11.77;6.93;;;9.30;99.90;;;;;;5053105;28;20032;-60
2023/04/01 03:50:05;;;;;;;12.17;6.17;;;9.30;99.90;;;;;;5052584;28;20051;-60
2023/04/01 03:52:31;;;;;;;12.60;6.20;;;9.30;99.90;;;;;;5053688;28;20101;-60
2023/04/01 03:54:57;;;;;;;11.17;6.43;;;9.30;99.90;;;;;;5052068;28;20461;-59
2023/04/01 03:57:23;;;;;;;9.33;5.60;;;9.40;99.90;;;;;;5053073;28;20036;-58
2023/04/01 03:59:49;;;;;;;7.80;4.40;;;9.40;99.90;;;;;;5052909;28;20025;-57
2023/04/01 04:02:15;;;;;;;7.50;3.83;;;9.30;99.90;;;;;;5053383;28;20094;-57
2023/04/01 04:04:42;;;;;;;8.37;3.80;;;9.40;99.90;;;;;;5052001;28;20047;-59
2023/04/01 04:07:08;;;;;;;11.40;5.07;;;9.30;99.90;;;;;;5052191;28;20024;-58
2023/04/01 04:09:54;;;;;;;8.90;4.50;;;9.30;99.90;;;;;;5070012;28;20465;-58
2023/04/01 04:12:19;;;;;;;9.33;4.20;;;9.40;99.90;;;;;;5053039;28;20043;-55
2023/04/01 04:14:45;;;;;;;10.27;5.00;;;9.40;99.90;;;;;;5071374;28;20028;-59
2023/04/01 04:17:16;;;;;;;9.07;4.17;;;9.30;99.90;;;;;;5052940;28;20101;-68
2023/04/01 04:19:42;;;;;;;11.07;4.67;;;9.30;99.90;;;;;;5053779;28;20487;-57
2023/04/01 04:22:08;;;;;;;6.73;3.40;;;9.40;99.90;;;;;;5054202;28;20032;-56
2023/04/01 04:24:35;;;;;;;7.63;3.40;;;9.40;99.90;;;;;;5053842;28;20491;-52
2023/04/01 04:27:07;;;;;;;6.03;3.03;;;9.40;99.90;;;;;;5053876;28;20161;-55
2023/04/01 04:29:35;;;;;;;8.00;3.43;;;9.40;99.90;;;;;;5053775;28;20036;-57
2023/04/01 04:32:01;;;;;;;7.83;3.27;;;9.40;99.90;;;;;;5053906;28;20400;-55
2023/04/01 04:34:27;;;;;;;7.40;4.03;;;9.40;99.90;;;;;;5053547;28;20033;-57
2023/04/01 04:36:53;;;;;;;7.90;4.00;;;9.40;99.90;;;;;;5053473;28;20033;-53
2023/04/01 04:39:21;;;;;;;8.43;4.67;;;9.40;99.90;;;;;;5053580;28;20072;-56
2023/04/01 04:41:48;;;;;;;8.83;4.63;;;9.40;99.90;;;;;;5037044;28;20035;-55
2023/04/01 04:44:13;;;;;;;8.17;4.20;;;9.40;99.90;;;;;;5071180;28;20028;-56
2023/04/01 04:46:39;;;;;;;7.27;3.40;;;9.40;99.90;;;;;;5053189;28;20024;-53
2023/04/01 04:49:11;;;;;;;6.37;3.30;;;9.40;99.90;;;;;;5053461;28;20047;-55
2023/04/01 04:51:37;;;;;;;7.63;3.27;;;9.40;99.90;;;;;;5053406;28;20029;-55
2023/04/01 04:54:04;;;;;;;6.37;3.70;;;9.50;99.90;;;;;;5071152;28;20036;-57
2023/04/01 04:56:53;;;;;;;10.20;4.27;;;9.40;99.90;;;;;;5053287;28;20119;-56
2023/04/01 04:59:20;;;;;;;9.25;5.15;;;9.40;99.90;;;;;;5053122;28;20028;-55
2023/04/01 05:01:54;;;;;;;8.17;5.07;;;9.50;99.90;;;;;;5053276;28;20043;-55
2023/04/01 05:04:20;;;;;;;12.87;6.70;;;9.50;99.90;;;;;;5070611;28;20393;-55
2023/04/01 05:06:46;;;;;;;10.47;5.60;;;9.40;99.90;;;;;;5052922;28;20101;-55
2023/04/01 05:09:12;;;;;;;9.93;6.10;;;9.40;99.90;;;;;;5052825;28;20127;-54
2023/04/01 05:11:40;;;;;;;12.33;7.37;;;9.40;99.90;;;;;;5052871;28;20028;-55
2023/04/01 05:14:05;;;;;;;11.53;7.43;;;9.40;99.90;;;;;;5053008;28;20033;-56
2023/04/01 05:16:32;;;;;;;12.33;8.13;;;9.40;99.90;;;;;;5052743;28;20496;-56
2023/04/01 05:18:59;;;;;;;16.87;8.90;;;9.40;99.90;;;;;;5052842;28;20028;-54
2023/04/01 05:21:25;;;;;;;12.17;7.33;;;9.40;99.90;;;;;;5070752;28;20040;-55
2023/04/01 05:23:52;;;;;;;12.93;7.23;;;9.40;99.90;;;;;;5052540;28;20450;-56
2023/04/01 05:26:18;;;;;;;12.03;7.60;;;9.40;99.90;;;;;;5052606;28;20115;-56
2023/04/01 05:28:44;;;;;;;12.40;6.63;;;9.40;99.90;;;;;;5052662;28;20119;-56
2023/04/01 05:31:10;;;;;;;12.47;6.70;;;9.30;99.90;;;;;;5052869;28;20501;-54
2023/04/01 05:33:41;;;;;;;10.10;5.93;;;9.30;99.90;;;;;;5052427;28;20043;-53
2023/04/01 05:36:08;;;;;;;8.57;5.53;;;9.40;99.90;;;;;;5052582;28;20115;-55
2023/04/01 05:38:34;;;;;;;8.83;6.07;;;9.40;99.90;;;;;;5052216;28;20032;-54
2023/04/01 05:41:02;;;;;;;11.97;6.97;;;9.40;99.90;;;;;;5052585;28;20081;-55
2023/04/01 05:43:29;;;;;;;12.65;6.68;;;9.30;99.90;;;;;;5052470;28;20511;-53
2023/04/01 05:45:58;;;;;;;11.47;7.13;;;9.30;99.90;;;;;;5052511;28;20028;-57
2023/04/01 05:48:46;;;;;;;10.80;7.03;;;9.40;99.90;;;;;;5069802;28;20071;-55
2023/04/01 05:51:14;;;;;;;10.37;5.93;;;9.40;99.90;;;;;;5052444;28;20064;-56
2023/04/01 05:53:40;;;;;;;7.13;4.77;;;9.40;99.90;;;;;;5052160;28;20044;-55
2023/04/01 05:56:09;;;;;;;7.07;4.80;;;9.40;99.90;;;;;;5052441;28;20252;-57
2023/04/01 05:58:38;;;;;;;9.90;5.73;;;9.40;99.90;;;;;;5052133;28;20032;-55
2023/04/01 06:01:07;;;;;;;8.90;5.60;;;9.30;99.90;;;;;;5052592;28;20029;-53
2023/04/01 06:03:34;;;;;;;7.88;5.32;;;9.30;99.90;;;;;;5052013;28;20473;-53
2023/04/01 06:06:00;;;;;;;8.90;4.70;;;9.40;99.90;;;;;;5070229;28;20033;-55
2023/04/01 06:08:29;;;;;;;6.87;4.73;;;9.40;99.90;;;;;;5052138;28;20507;-55
2023/04/01 06:11:10;;;;;;;16.37;6.30;;;9.30;99.90;;;;;;5052297;28;20516;-57
2023/04/01 06:13:48;;;;;;;8.67;4.60;;;9.30;99.90;;;;;;5070001;28;20039;-56
2023/04/01 06:16:22;;;;;;;6.90;4.50;;;9.30;99.90;;;;;;5052164;28;20024;-55
2023/04/01 06:19:12;;;;;;;9.67;4.83;;;9.30;99.90;;;;;;5051925;28;20114;-55
2023/04/01 06:22:06;;;;;;;9.83;4.37;;;9.30;99.90;;;;;;5025141;28;20040;-53
2023/04/01 06:25:08;;;;;;;6.97;4.27;;;9.40;99.90;;;;;;5051664;28;20033;-53
2023/04/01 06:27:34;;;;;;;6.53;4.33;;;9.40;99.90;;;;;;5051836;28;20028;-54
2023/04/01 06:30:21;;;;;;;7.17;4.43;;;9.30;99.90;;;;;;5053297;28;20443;-56
2023/04/01 06:33:08;;;;;;;5.73;3.97;;;9.40;99.90;;;;;;5055796;28;20036;-55
2023/04/01 06:36:03;;;;;;;7.07;3.83;;;9.40;99.90;;;;;;5055543;28;20029;-55
2023/04/01 06:38:47;;;;;;;6.53;4.50;;;9.40;99.90;;;;;;5042297;28;20082;-54
2023/04/01 06:41:13;;;;;;;6.80;4.50;;;9.40;99.90;;;;;;5055711;28;20457;-56
2023/04/01 06:44:03;;;;;;;7.10;4.50;;;9.40;99.90;;;;;;5055618;28;20131;-55
2023/04/01 06:47:00;;;;;;;7.60;4.33;;;9.40;99.90;;;;;;5073273;28;20036;-54
2023/04/01 06:50:11;;;;;;;7.82;4.55;;;9.30;99.90;;;;;;5073698;28;20476;-54
2023/04/01 06:53:19;;;;;;;6.53;4.30;;;9.30;99.90;;;;;;5058344;28;20040;-54
2023/04/01 06:56:18;;;;;;;6.30;4.23;;;9.40;99.90;;;;;;5072679;28;20041;-56
2023/04/01 06:59:16;;;;;;;8.57;5.20;;;9.40;99.90;;;;;;5055495;28;20477;-55
2023/04/01 07:02:00;;;;;;;8.80;5.50;;;9.30;99.90;;;;;;5055151;28;20025;-55
2023/04/01 07:04:33;;;;;;;8.73;5.33;;;9.30;99.90;;;;;;5054920;28;20385;-55
2023/04/01 07:07:29;;;;;;;8.60;5.67;;;9.30;99.90;;;;;;5050796;28;20083;-48
2023/04/01 07:10:04;;;;;;;8.87;6.83;;;9.40;99.90;;;;;;5035150;28;20033;-49
2023/04/01 07:12:44;;;;;;;9.90;6.40;;;9.40;99.90;;;;;;5053478;28;20037;-50
2023/04/01 07:15:41;;;;;;;13.40;7.30;;;9.50;99.90;;;;;;5030823;28;20041;-51
2023/04/01 07:18:55;;;;;;;11.40;7.13;;;9.40;99.90;;;;;;5034767;28;20029;-48
2023/04/01 07:21:30;;;;;;;11.90;7.03;;;9.50;99.90;;;;;;5020289;28;20513;-49
2023/04/01 07:24:05;;;;;;;10.77;6.70;;;9.40;99.90;;;;;;5034903;28;20203;-49
2023/04/01 07:26:38;;;;;;;9.43;6.00;;;9.40;99.90;;;;;;5034835;28;20039;-48
2023/04/01 07:29:15;;;;;;;12.93;6.67;;;9.40;99.90;;;;;;5035016;28;20139;-54
2023/04/01 07:32:10;;;;;;;9.20;6.23;;;9.40;99.90;;;;;;5035034;28;20029;-53
2023/04/01 07:34:51;;;;;;;9.63;6.00;;;9.40;99.90;;;;;;5034763;28;20025;-48
2023/04/01 07:37:26;;;;;;;10.77;5.70;;;9.30;99.90;;;;;;5052761;28;20017;-48
2023/04/01 07:40:17;;;;;;;10.33;6.10;;;9.40;99.90;;;;;;5034608;28;20043;-49
2023/04/01 07:42:45;;;;;;;8.43;5.93;;;9.40;99.90;;;;;;5033624;28;20028;-51
2023/04/01 07:45:34;;;;;;;8.65;5.70;;;9.40;99.90;;;;;;5034264;28;20021;-49
2023/04/01 07:48:08;;;;;;;6.37;5.07;;;9.40;99.90;;;;;;5034431;28;20032;-52
2023/04/01 07:50:52;;;;;;;6.23;4.83;;;9.50;99.90;;;;;;5034592;28;20036;-49
2023/04/01 07:53:21;;;;;;;8.03;5.17;;;9.50;99.90;;;;;;5034253;28;20573;-49
2023/04/01 07:56:28;;;;;;;7.33;4.60;;;9.50;99.90;;;;;;5034375;28;20025;-49
2023/04/01 07:59:11;;;;;;;7.00;5.30;;;9.50;99.90;;;;;;5022317;28;20506;-49
2023/04/01 08:02:22;;;;;;;8.03;5.37;;;9.50;99.90;;;;;;5034335;28;20040;-50
2023/04/01 08:04:57;;;;;;;7.93;5.27;;;9.60;99.90;;;;;;5033926;28;20028;-53
2023/04/01 08:07:32;;;;;;;12.43;8.10;;;9.60;99.90;;;;;;5034046;28;20040;-49
2023/04/01 08:10:30;;;;;;;13.57;8.90;;;9.60;99.90;;;;;;5052072;28;20034;-48
2023/04/01 08:13:23;;;;;;;10.77;6.80;;;9.50;99.90;;;;;;5052124;28;20108;-52
2023/04/01 08:16:37;;;;;;;9.50;6.17;;;9.50;99.90;;;;;;5014301;28;20124;-52
2023/04/01 08:19:30;;;;;;;10.53;6.17;;;9.50;99.90;;;;;;5033921;28;20029;-48
2023/04/01 08:22:18;;;;;;;9.80;6.70;;;9.60;99.90;;;;;;5033785;28;20120;-50
2023/04/01 08:24:48;;;;;;;8.80;5.63;;;9.60;99.90;;;;;;5033627;28;20404;-48
2023/04/01 08:27:31;;;;;;;9.90;6.27;;;9.60;99.90;;;;;;5033671;28;20028;-51
2023/04/01 08:30:42;;;;;;;8.73;6.57;;;9.60;99.90;;;;;;5033737;28;20029;-48
2023/04/01 08:33:29;;;;;;;11.23;7.13;;;9.70;99.90;;;;;;4972778;28;20047;-51
2023/04/01 08:36:16;;;;;;;9.00;6.37;;;9.70;99.90;;;;;;5033654;28;20129;-49
2023/04/01 08:39:01;;;;;;;11.17;6.17;;;9.60;99.90;;;;;;5033662;28;20025;-51
2023/04/01 08:41:54;;;;;;;8.83;5.83;;;9.70;99.90;;;;;;5033477;28;20451;-49
2023/04/01 08:45:07;;;;;;;6.53;5.10;;;9.70;99.90;;;;;;5048047;28;20053;-49
2023/04/01 08:47:45;;;;;;;6.70;4.97;;;9.70;99.90;;;;;;5033210;28;20028;-53
2023/04/01 08:50:33;;;;;;;7.30;5.10;;;9.70;99.90;;;;;;5033404;28;20028;-49
2023/04/01 08:53:27;;;;;;;7.67;5.00;;;9.80;99.90;;;;;;5033085;28;20082;-48
2023/04/01 08:56:13;;;;;;;9.37;5.67;;;9.80;99.90;;;;;;5033087;28;20558;-49
2023/04/01 08:58:44;;;;;;;7.47;5.27;;;9.70;99.90;;;;;;5033078;28;20032;-48
2023/04/01 09:01:36;;;;;;;9.67;6.13;;;9.70;99.90;;;;;;5048813;28;20485;-48
2023/04/01 09:04:07;;;;;;;7.77;5.57;;;9.80;99.90;;;;;;5032848;28;20533;-50
2023/04/01 09:06:52;;;;;;;10.30;6.38;;;9.80;99.90;;;;;;5050689;28;20083;-48
2023/04/01 09:10:03;;;;;;;9.33;6.20;;;9.80;99.90;;;;;;5033177;28;20029;-47
2023/04/01 09:12:45;;;;;;;8.50;6.10;;;9.90;99.90;;;;;;5033698;28;20039;-47
2023/04/01 09:15:33;;;;;;;13.50;6.63;;;9.90;99.90;;;;;;5033065;28;20090;-49
2023/04/01 09:18:36;;;;;;;12.10;7.30;;;10.00;99.90;;;;;;5033214;28;20043;-51
2023/04/01 09:21:29;;;;;;;10.90;6.50;;;10.10;99.90;;;;;;5032848;28;20057;-51
2023/04/01 09:24:09;;;;;;;9.73;6.10;;;10.20;99.90;;;;;;5032728;28;20543;-50
2023/04/01 09:26:57;;;;;;;12.30;7.23;;;10.30;99.90;;;;;;5032591;28;20025;-49
2023/04/01 09:29:31;;;;;;;11.40;7.10;;;10.30;99.90;;;;;;5050406;28;20155;-51
2023/04/01 09:32:25;;;;;;;11.50;7.27;;;10.30;99.90;;;;;;5032841;28;20520;-52
2023/04/01 09:35:20;;;;;;;10.53;6.80;;;10.30;99.90;;;;;;5047051;28;20493;-53
2023/04/01 09:37:49;;;;;;;11.05;6.93;;;10.40;99.90;;;;;;5032486;28;20025;-50
2023/04/01 09:40:31;;;;;;;12.47;8.23;;;10.40;99.90;;;;;;5032523;28;20056;-53
2023/04/01 09:43:22;;;;;;;11.10;7.77;;;10.40;99.90;;;;;;5032841;28;20409;-49
2023/04/01 09:46:08;;;;;;;11.73;7.68;;;10.40;99.90;;;;;;5032536;28;20381;-51
2023/04/01 09:48:40;;;;;;;11.43;7.60;;;10.40;99.90;;;;;;5032321;28;20371;-51
2023/04/01 09:51:35;;;;;;;13.83;8.90;;;10.40;99.90;;;;;;5032483;28;20033;-51
2023/04/01 09:54:26;;;;;;;13.93;9.23;;;10.30;99.90;;;;;;5003880;28;20371;-54
2023/04/01 09:57:25;;;;;;;16.03;9.67;;;10.30;99.90;;;;;;5032193;28;20398;-51
2023/04/01 10:00:21;;;;;;;15.23;9.97;;;10.30;99.90;;;;;;5032329;28;20520;-54
2023/04/01 10:03:19;;;;;;;15.77;10.23;;;10.30;99.90;;;;;;5032354;28;20468;-49
2023/04/01 10:06:25;;;;;;;17.17;10.40;;;10.30;99.90;;;;;;5052744;28;20551;-53
2023/04/01 10:09:06;;;;;;;17.20;10.50;;;10.30;99.90;;;;;;5036329;28;20383;-49
2023/04/01 10:11:54;;;;;;;16.10;10.43;;;10.20;99.90;;;;;;5036430;28;20044;-48
2023/04/01 10:14:35;;;;;;;15.20;10.10;;;10.30;99.90;;;;;;5036115;28;20106;-51
2023/04/01 10:17:28;;;;;;;15.07;10.30;;;10.30;99.90;;;;;;5036295;28;20485;-49
2023/04/01 10:20:05;;;;;;;17.00;10.20;;;10.40;99.90;;;;;;5053966;28;20029;-49
2023/04/01 10:23:06;;;;;;;18.23;10.40;;;10.40;99.90;;;;;;5036269;28;20088;-51
2023/04/01 10:25:56;;;;;;;15.93;10.97;;;10.40;99.90;;;;;;5036069;28;20021;-52
2023/04/01 10:28:50;;;;;;;17.10;10.40;;;10.30;99.90;;;;;;5035992;28;20444;-52
2023/04/01 10:31:43;;;;;;;17.10;10.67;;;10.30;99.90;;;;;;5036002;28;20029;-47
2023/04/01 10:34:20;;;;;;;15.85;10.23;;;10.30;99.90;;;;;;5053580;28;20033;-48
2023/04/01 10:36:57;;;;;;;17.67;10.10;;;10.40;99.90;;;;;;5035628;28;20447;-49
2023/04/01 10:40:18;;;;;;;21.23;13.03;;;10.40;99.90;;;;;;5035809;28;20060;-49
2023/04/01 10:43:25;;;;;;;13.53;8.97;;;10.40;99.90;;;;;;5051791;28;20033;-48
2023/04/01 10:46:11;;;;;;;14.00;9.50;;;10.50;99.90;;;;;;5035680;28;20029;-50
2023/04/01 10:49:07;;;;;;;15.50;10.13;;;10.40;99.90;;;;;;5035415;28;20051;-49
2023/04/01 10:52:12;;;;;;;15.50;9.90;;;10.40;99.90;;;;;;5035723;28;20119;-51
2023/04/01 10:55:19;;;;;;;16.50;9.77;;;10.40;99.90;;;;;;5053436;28;20391;-50
2023/04/01 10:58:32;;;;;;;18.87;11.07;;;10.40;99.90;;;;;;5029569;28;20045;-49
2023/04/01 11:01:35;;;;;;;18.43;10.93;;;10.40;99.90;;;;;;5053333;28;20396;-48
2023/04/01 11:04:45;;;;;;;19.57;11.77;;;10.40;99.90;;;;;;5052832;28;20053;-52
2023/04/01 11:07:57;;;;;;;22.60;13.17;;;10.30;99.90;;;;;;5053381;28;20098;-47
2023/04/01 11:10:35;;;;;;;22.13;13.00;;;10.30;99.90;;;;;;5053085;28;20033;-51
2023/04/01 11:13:19;;;;;;;21.93;13.20;;;10.40;99.90;;;;;;5035537;28;20025;-48
2023/04/01 11:16:11;;;;;;;26.43;13.80;;;10.30;99.90;;;;;;5034915;28;20033;-48
2023/04/01 11:18:52;;;;;;;24.50;13.43;;;10.30;99.90;;;;;;5034904;28;20024;-51
2023/04/01 11:21:42;;;;;;;22.73;13.97;;;10.30;99.90;;;;;;5035008;28;20489;-48
2023/04/01 11:24:27;;;;;;;22.60;13.73;;;10.30;99.90;;;;;;5034852;28;20442;-51
2023/04/01 11:27:37;;;;;;;19.23;12.80;;;10.30;99.90;;;;;;5034869;28;20121;-51
2023/04/01 11:30:28;;;;;;;22.37;14.13;;;10.30;99.90;;;;;;5034802;28;20032;-49
2023/04/01 11:33:07;;;;;;;23.93;13.67;;;10.30;99.90;;;;;;5034811;28;20037;-50
2023/04/01 11:35:42;;;;;;;21.43;14.37;;;10.40;99.90;;;;;;5034671;28;20028;-49
2023/04/01 11:38:27;;;;;;;23.70;15.00;;;10.30;99.90;;;;;;5034506;28;20047;-49
2023/04/01 11:41:15;;;;;;;25.30;14.23;;;10.40;99.90;;;;;;5052719;28;20041;-48
2023/04/01 11:44:22;;;;;;;23.40;14.50;;;10.40;99.90;;;;;;5052364;28;20068;-49
2023/04/01 11:47:36;;;;;;;21.90;13.90;;;10.40;99.90;;;;;;5034276;28;20121;-50
2023/04/01 11:50:22;;;;;;;24.23;13.60;;;10.30;99.90;;;;;;5012221;28;20029;-48
2023/04/01 11:53:05;;;;;;;;;;;10.30;99.90;;;;;;5035100;28;20021;-53
2023/04/01 11:55:58;;;;;;;21.60;15.68;;;10.30;99.90;;;;;;5052267;28;19909;-51
2023/04/01 11:58:55;;;;;;;19.30;13.63;;;10.30;99.90;;;;;;5052349;28;20029;-52
2023/04/01 12:01:58;;;;;;;27.87;15.23;;;10.40;99.90;;;;;;5052054;28;20033;-49
2023/04/01 12:04:38;;;;;;;22.33;13.60;;;10.40;99.90;;;;;;5052323;28;20053;-52
2023/04/01 12:07:31;;;;;;;17.80;12.20;;;10.40;99.90;;;;;;5051880;28;20025;-51
2023/04/01 12:10:21;;;;;;;15.30;10.67;;;10.30;99.90;;;;;;5052086;28;20029;-49
2023/04/01 12:13:25;;;;;;;20.43;11.83;;;10.30;99.90;;;;;;5034286;28;20024;-50
2023/04/01 12:16:08;;;;;;;13.83;10.13;;;10.20;99.90;;;;;;4970671;28;20640;-50
2023/04/01 12:19:05;;;;;;;17.60;11.00;;;10.30;99.90;;;;;;4970677;28;20470;-49
2023/04/01 12:21:42;;;;;;;13.57;9.67;;;10.30;99.90;;;;;;5034865;28;20135;-49
2023/04/01 12:24:47;;;;;;;16.20;10.50;;;10.40;99.90;;;;;;5051635;28;20025;-50
2023/04/01 12:27:25;;;;;;;14.97;9.70;;;10.40;99.90;;;;;;5050965;28;20465;-48
2023/04/01 12:30:29;;;;;;;14.77;9.20;;;10.50;99.90;;;;;;5051771;28;20070;-49
2023/04/01 12:33:28;;;;;;;12.87;9.63;;;10.60;99.90;;;;;;5051815;28;20389;-48
2023/04/01 12:35:54;;;;;;;;;;;10.70;99.90;;;;;;5052272;28;20052;-48
2023/04/01 12:38:26;;;;;;;13.20;8.70;;;10.80;99.90;;;;;;5051398;28;19908;-50
2023/04/01 12:41:16;;;;;;;12.23;8.57;;;10.80;99.90;;;;;;5051423;28;20064;-51
2023/04/01 12:44:00;;;;;;;15.10;8.60;;;10.90;99.90;;;;;;5051429;28;20469;-49
2023/04/01 12:46:54;;;;;;;12.87;8.90;;;11.00;99.90;;;;;;5051354;28;20025;-49
2023/04/01 12:49:44;;;;;;;12.07;8.17;;;11.00;99.90;;;;;;5051309;28;20029;-49
2023/04/01 12:52:14;;;;;;;13.70;8.50;;;11.00;99.90;;;;;;5051406;28;20037;-50
2023/04/01 12:54:58;;;;;;;12.43;8.27;;;10.90;99.90;;;;;;5033349;28;20029;-49
2023/04/01 12:57:56;;;;;;;13.13;8.73;;;10.90;99.90;;;;;;5051118;28;20036;-51
2023/04/01 13:00:57;;;;;;;13.73;8.53;;;10.80;99.90;;;;;;5046815;28;20056;-53
2023/04/01 13:03:48;;;;;;;12.93;8.20;;;10.80;99.90;;;;;;5051143;28;20055;-50
2023/04/01 13:06:23;;;;;;;12.93;8.07;;;10.70;99.90;;;;;;5072712;22;20045;-53
2023/04/01 13:09:16;;;;;;;12.60;8.30;;;10.70;99.90;;;;;;5053014;28;20036;-57
2023/04/01 13:11:42;;;;;;;13.23;8.30;;;10.60;99.90;;;;;;5070861;28;20039;-57
2023/04/01 13:14:27;;;;;;;16.23;8.60;;;10.60;99.90;;;;;;5070645;28;20040;-55
2023/04/01 13:17:30;;;;;;;12.53;8.20;;;10.60;99.90;;;;;;5055022;28;20028;-56
2023/04/01 13:20:28;;;;;;;15.83;8.17;;;10.60;99.90;;;;;;5050716;28;20159;-55
2023/04/01 13:23:12;;;;;;;13.70;8.77;;;10.50;99.90;;;;;;5050996;28;20057;-54
2023/04/01 13:26:09;;;;;;;13.03;8.47;;;10.50;99.90;;;;;;5050589;28;20040;-56
2023/04/01 13:29:13;;;;;;;15.33;9.07;;;10.50;99.90;;;;;;5050473;28;20111;-57
2023/04/01 13:32:00;;;;;;;13.57;8.43;;;10.50;99.90;;;;;;5038214;28;20064;-55
2023/04/01 13:34:32;;;;;;;13.93;8.70;;;10.50;99.90;;;;;;5050413;28;20025;-56
2023/04/01 13:37:39;;;;;;;14.37;8.53;;;10.50;99.90;;;;;;5050320;28;20033;-56
2023/04/01 13:40:25;;;;;;;13.87;8.40;;;10.50;99.90;;;;;;5029099;28;20451;-55
2023/04/01 13:43:08;;;;;;;16.33;9.23;;;10.50;99.90;;;;;;5050481;28;20040;-57
2023/04/01 13:46:02;;;;;;;14.07;9.27;;;10.40;99.90;;;;;;5050350;28;20025;-56
2023/04/01 13:48:46;;;;;;;16.73;9.97;;;10.40;99.90;;;;;;5050347;28;20033;-56
2023/04/01 13:51:23;;;;;;;18.07;10.20;;;10.30;99.90;;;;;;5050470;28;20029;-55